sensor_id;sensor_type;location;lat;lon;timestamp;temperature;humidity
27747;DHT22;15138;51.012;4.692;2023-03-31T00:00:53;11.50;77.70
27747;DHT22;15138;51.012;4.692;2023-03-31T00:03:25;11.40;1.00
27747;DHT22;15138;51.012;4.692;2023-03-31T00:05:57;11.40;32.00
27747;DHT22;15138;51.012;4.692;2023-03-31T00:08:27;11.50;46.70
27747;DHT22;15138;51.012;4.692;2023-03-31T00:10:58;11.50;1.00
27747;DHT22;15138;51.012;4.692;2023-03-31T00:13:27;11.50;1.00
27747;DHT22;15138;51.012;4.692;2023-03-31T00:15:56;11.50;1.00
27747;DHT22;15138;51.012;4.692;2023-03-31T00:18:26;11.50;1.00
27747;DHT22;15138;51.012;4.692;2023-03-31T00:21:04;11.50;1.00
27747;DHT22;15138;51.012;4.692;2023-03-31T00:23:33;11.50;22.20
27747;DHT22;15138;51.012;4.692;2023-03-31T00:26:01;11.50;1.00
27747;DHT22;15138;51.012;4.692;2023-03-31T00:28:30;11.50;1.00
27747;DHT22;15138;51.012;4.692;2023-03-31T00:31:02;11.50;1.00
27747;DHT22;15138;51.012;4.692;2023-03-31T00:33:32;11.60;1.00
27747;DHT22;15138;51.012;4.692;2023-03-31T00:36:00;11.60;1.00
27747;DHT22;15138;51.012;4.692;2023-03-31T00:38:32;11.70;23.60
27747;DHT22;15138;51.012;4.692;2023-03-31T00:41:01;11.70;99.90
27747;DHT22;15138;51.012;4.692;2023-03-31T00:43:31;11.70;78.60
27747;DHT22;15138;51.012;4.692;2023-03-31T00:46:04;11.70;10.60
27747;DHT22;15138;51.012;4.692;2023-03-31T00:48:36;11.80;1.00
27747;DHT22;15138;51.012;4.692;2023-03-31T00:51:06;11.80;1.00
27747;DHT22;15138;51.012;4.692;2023-03-31T00:53:35;11.90;1.00
27747;DHT22;15138;51.012;4.692;2023-03-31T00:56:08;11.90;99.90
27747;DHT22;15138;51.012;4.692;2023-03-31T00:58:39;11.80;99.90
27747;DHT22;15138;51.012;4.692;2023-03-31T01:01:12;11.80;1.00
27747;DHT22;15138;51.012;4.692;2023-03-31T01:03:44;11.80;1.00
27747;DHT22;15138;51.012;4.692;2023-03-31T01:06:14;11.80;1.00
27747;DHT22;15138;51.012;4.692;2023-03-31T01:08:47;11.80;88.10
27747;DHT22;15138;51.012;4.692;2023-03-31T01:11:18;11.70;99.90
27747;DHT22;15138;51.012;4.692;2023-03-31T01:13:49;11.70;99.90
27747;DHT22;15138;51.012;4.692;2023-03-31T01:16:18;11.80;1.00
27747;DHT22;15138;51.012;4.692;2023-03-31T01:18:48;11.70;99.90
27747;DHT22;15138;51.012;4.692;2023-03-31T01:27:30;11.60;1.00
27747;DHT22;15138;51.012;4.692;2023-03-31T01:33:14;11.60;1.00
27747;DHT22;15138;51.012;4.692;2023-03-31T01:39:20;11.60;1.00
27747;DHT22;15138;51.012;4.692;2023-03-31T01:42:00;11.60;1.00
27747;DHT22;15138;51.012;4.692;2023-03-31T01:44:37;11.50;99.90
27747;DHT22;15138;51.012;4.692;2023-03-31T01:47:11;11.50;1.00
27747;DHT22;15138;51.012;4.692;2023-03-31T01:49:48;11.50;99.90
27747;DHT22;15138;51.012;4.692;2023-03-31T01:52:21;11.50;99.90
27747;DHT22;15138;51.012;4.692;2023-03-31T01:54:54;11.50;99.90
27747;DHT22;15138;51.012;4.692;2023-03-31T01:57:28;11.50;99.90
27747;DHT22;15138;51.012;4.692;2023-03-31T02:00:02;11.50;99.90
27747;DHT22;15138;51.012;4.692;2023-03-31T02:02:36;11.40;1.00
27747;DHT22;15138;51.012;4.692;2023-03-31T02:05:08;11.40;1.00
27747;DHT22;15138;51.012;4.692;2023-03-31T02:07:41;11.40;1.00
27747;DHT22;15138;51.012;4.692;2023-03-31T02:10:11;11.40;1.00
27747;DHT22;15138;51.012;4.692;2023-03-31T02:12:42;11.40;1.00
27747;DHT22;15138;51.012;4.692;2023-03-31T02:15:13;11.40;1.00
27747;DHT22;15138;51.012;4.692;2023-03-31T02:17:47;11.40;1.00
27747;DHT22;15138;51.012;4.692;2023-03-31T02:20:18;11.40;1.00
27747;DHT22;15138;51.012;4.692;2023-03-31T02:22:51;11.40;99.90
27747;DHT22;15138;51.012;4.692;2023-03-31T02:25:22;11.40;99.90
27747;DHT22;15138;51.012;4.692;2023-03-31T02:27:57;11.40;1.00
27747;DHT22;15138;51.012;4.692;2023-03-31T02:30:31;11.30;1.00
27747;DHT22;15138;51.012;4.692;2023-03-31T02:35:32;11.40;99.90
27747;DHT22;15138;51.012;4.692;2023-03-31T02:38:02;11.30;1.00
27747;DHT22;15138;51.012;4.692;2023-03-31T02:40:32;11.30;1.00
27747;DHT22;15138;51.012;4.692;2023-03-31T02:43:02;11.20;1.00
27747;DHT22;15138;51.012;4.692;2023-03-31T02:45:39;11.20;1.00
27747;DHT22;15138;51.012;4.692;2023-03-31T02:48:10;11.20;1.00
27747;DHT22;15138;51.012;4.692;2023-03-31T02:53:46;11.20;1.00
27747;DHT22;15138;51.012;4.692;2023-03-31T02:56:29;11.20;1.00
27747;DHT22;15138;51.012;4.692;2023-03-31T02:59:23;11.20;1.00
27747;DHT22;15138;51.012;4.692;2023-03-31T03:02:07;11.20;99.90
27747;DHT22;15138;51.012;4.692;2023-03-31T03:04:49;11.20;99.90
27747;DHT22;15138;51.012;4.692;2023-03-31T03:07:23;11.20;99.90
27747;DHT22;15138;51.012;4.692;2023-03-31T03:10:00;11.20;99.90
27747;DHT22;15138;51.012;4.692;2023-03-31T03:12:37;11.20;99.90
27747;DHT22;15138;51.012;4.692;2023-03-31T03:15:11;11.20;99.90
27747;DHT22;15138;51.012;4.692;2023-03-31T03:17:41;11.20;7.30
27747;DHT22;15138;51.012;4.692;2023-03-31T03:20:12;11.20;6.50
27747;DHT22;15138;51.012;4.692;2023-03-31T03:22:42;11.20;1.00
27747;DHT22;15138;51.012;4.692;2023-03-31T03:25:12;11.20;1.00
27747;DHT22;15138;51.012;4.692;2023-03-31T03:27:40;11.20;1.00
27747;DHT22;15138;51.012;4.692;2023-03-31T03:30:12;11.10;1.00
27747;DHT22;15138;51.012;4.692;2023-03-31T03:32:40;11.20;1.00
27747;DHT22;15138;51.012;4.692;2023-03-31T03:35:09;11.20;1.00
27747;DHT22;15138;51.012;4.692;2023-03-31T03:37:38;11.20;1.00
27747;DHT22;15138;51.012;4.692;2023-03-31T03:40:07;11.20;1.00
27747;DHT22;15138;51.012;4.692;2023-03-31T03:42:36;11.10;1.00
27747;DHT22;15138;51.012;4.692;2023-03-31T03:45:05;11.10;99.90
27747;DHT22;15138;51.012;4.692;2023-03-31T03:47:35;11.00;99.90
27747;DHT22;15138;51.012;4.692;2023-03-31T03:50:04;10.90;1.00
27747;DHT22;15138;51.012;4.692;2023-03-31T03:52:32;10.90;1.00
27747;DHT22;15138;51.012;4.692;2023-03-31T03:55:00;11.00;1.00
27747;DHT22;15138;51.012;4.692;2023-03-31T03:59:57;11.00;73.70
27747;DHT22;15138;51.012;4.692;2023-03-31T04:02:25;10.90;99.90
27747;DHT22;15138;51.012;4.692;2023-03-31T04:04:56;10.90;99.90
27747;DHT22;15138;51.012;4.692;2023-03-31T04:07:24;10.90;20.50
27747;DHT22;15138;51.012;4.692;2023-03-31T04:09:52;10.90;97.80
27747;DHT22;15138;51.012;4.692;2023-03-31T04:12:20;10.90;1.00
27747;DHT22;15138;51.012;4.692;2023-03-31T04:14:49;10.90;1.00
27747;DHT22;15138;51.012;4.692;2023-03-31T04:17:17;10.90;1.00
27747;DHT22;15138;51.012;4.692;2023-03-31T04:19:46;10.90;1.00
27747;DHT22;15138;51.012;4.692;2023-03-31T04:22:19;10.90;1.00
27747;DHT22;15138;51.012;4.692;2023-03-31T04:24:47;10.90;99.90
27747;DHT22;15138;51.012;4.692;2023-03-31T04:27:18;10.90;1.00
27747;DHT22;15138;51.012;4.692;2023-03-31T04:32:20;10.80;1.00
27747;DHT22;15138;51.012;4.692;2023-03-31T04:37:18;10.80;1.00
27747;DHT22;15138;51.012;4.692;2023-03-31T04:39:47;10.80;1.00
27747;DHT22;15138;51.012;4.692;2023-03-31T04:42:16;10.70;99.90
27747;DHT22;15138;51.012;4.692;2023-03-31T04:44:44;10.70;99.90
27747;DHT22;15138;51.012;4.692;2023-03-31T04:47:12;10.70;99.90
27747;DHT22;15138;51.012;4.692;2023-03-31T04:49:41;10.70;99.90
27747;DHT22;15138;51.012;4.692;2023-03-31T04:52:09;10.60;1.00
27747;DHT22;15138;51.012;4.692;2023-03-31T05:02:04;10.50;99.90
27747;DHT22;15138;51.012;4.692;2023-03-31T05:07:01;10.60;99.90
27747;DHT22;15138;51.012;4.692;2023-03-31T05:09:30;10.50;99.90
27747;DHT22;15138;51.012;4.692;2023-03-31T05:12:02;10.50;38.90
27747;DHT22;15138;51.012;4.692;2023-03-31T05:14:30;10.60;99.90
27747;DHT22;15138;51.012;4.692;2023-03-31T05:29:24;10.60;99.90
27747;DHT22;15138;51.012;4.692;2023-03-31T05:31:53;10.80;1.00
27747;DHT22;15138;51.012;4.692;2023-03-31T05:34:21;10.70;99.90
27747;DHT22;15138;51.012;4.692;2023-03-31T05:36:49;10.70;99.90
27747;DHT22;15138;51.012;4.692;2023-03-31T05:39:20;10.70;99.90
27747;DHT22;15138;51.012;4.692;2023-03-31T05:41:48;10.80;99.90
27747;DHT22;15138;51.012;4.692;2023-03-31T05:44:16;10.80;99.90
27747;DHT22;15138;51.012;4.692;2023-03-31T05:46:47;10.90;99.90
27747;DHT22;15138;51.012;4.692;2023-03-31T05:49:16;10.90;99.90
27747;DHT22;15138;51.012;4.692;2023-03-31T05:51:44;10.90;89.70
27747;DHT22;15138;51.012;4.692;2023-03-31T05:54:13;10.90;99.30
27747;DHT22;15138;51.012;4.692;2023-03-31T05:56:41;10.90;96.70
27747;DHT22;15138;51.012;4.692;2023-03-31T05:59:10;11.00;39.70
27747;DHT22;15138;51.012;4.692;2023-03-31T06:01:38;10.90;1.00
27747;DHT22;15138;51.012;4.692;2023-03-31T06:04:07;10.90;1.00
27747;DHT22;15138;51.012;4.692;2023-03-31T06:06:36;11.00;99.90
27747;DHT22;15138;51.012;4.692;2023-03-31T06:09:04;11.00;99.90
27747;DHT22;15138;51.012;4.692;2023-03-31T06:11:32;11.10;99.90
27747;DHT22;15138;51.012;4.692;2023-03-31T06:14:01;11.10;99.90
27747;DHT22;15138;51.012;4.692;2023-03-31T06:16:29;10.90;67.70
27747;DHT22;15138;51.012;4.692;2023-03-31T06:18:57;11.10;1.00
27747;DHT22;15138;51.012;4.692;2023-03-31T06:21:27;11.10;99.90
27747;DHT22;15138;51.012;4.692;2023-03-31T06:23:55;11.00;99.90
27747;DHT22;15138;51.012;4.692;2023-03-31T06:26:24;12.00;1.00
27747;DHT22;15138;51.012;4.692;2023-03-31T06:28:52;11.30;99.90
27747;DHT22;15138;51.012;4.692;2023-03-31T06:31:22;11.20;99.90
27747;DHT22;15138;51.012;4.692;2023-03-31T06:33:51;11.20;99.90
27747;DHT22;15138;51.012;4.692;2023-03-31T06:36:20;11.30;1.00
27747;DHT22;15138;51.012;4.692;2023-03-31T06:41:19;11.40;1.00
27747;DHT22;15138;51.012;4.692;2023-03-31T06:43:48;11.40;99.90
27747;DHT22;15138;51.012;4.692;2023-03-31T06:46:17;11.50;1.00
27747;DHT22;15138;51.012;4.692;2023-03-31T06:48:45;11.50;99.90
27747;DHT22;15138;51.012;4.692;2023-03-31T06:51:13;11.60;99.90
27747;DHT22;15138;51.012;4.692;2023-03-31T06:53:42;11.60;25.00
27747;DHT22;15138;51.012;4.692;2023-03-31T06:58:40;11.80;1.00
27747;DHT22;15138;51.012;4.692;2023-03-31T07:01:08;11.90;99.90
27747;DHT22;15138;51.012;4.692;2023-03-31T07:03:37;11.90;99.90
27747;DHT22;15138;51.012;4.692;2023-03-31T07:06:06;11.90;1.00
27747;DHT22;15138;51.012;4.692;2023-03-31T07:08:34;12.00;8.70
27747;DHT22;15138;51.012;4.692;2023-03-31T07:13:36;12.30;1.00
27747;DHT22;15138;51.012;4.692;2023-03-31T07:28:38;12.70;1.00
27747;DHT22;15138;51.012;4.692;2023-03-31T07:31:10;12.60;99.90
27747;DHT22;15138;51.012;4.692;2023-03-31T07:33:39;12.60;99.90
27747;DHT22;15138;51.012;4.692;2023-03-31T07:36:08;12.60;99.90
27747;DHT22;15138;51.012;4.692;2023-03-31T07:38:39;12.60;99.90
27747;DHT22;15138;51.012;4.692;2023-03-31T07:41:09;12.60;99.90
27747;DHT22;15138;51.012;4.692;2023-03-31T07:43:39;12.60;99.90
27747;DHT22;15138;51.012;4.692;2023-03-31T07:46:14;12.60;99.90
27747;DHT22;15138;51.012;4.692;2023-03-31T07:48:42;12.70;99.90
27747;DHT22;15138;51.012;4.692;2023-03-31T07:51:12;12.70;99.90
27747;DHT22;15138;51.012;4.692;2023-03-31T07:53:40;12.70;99.90
27747;DHT22;15138;51.012;4.692;2023-03-31T07:56:09;12.70;99.90
27747;DHT22;15138;51.012;4.692;2023-03-31T07:58:38;12.70;99.90
27747;DHT22;15138;51.012;4.692;2023-03-31T08:01:06;12.70;99.90
27747;DHT22;15138;51.012;4.692;2023-03-31T08:03:35;12.60;99.90
27747;DHT22;15138;51.012;4.692;2023-03-31T08:06:03;12.60;99.90
27747;DHT22;15138;51.012;4.692;2023-03-31T08:08:32;12.50;99.90
27747;DHT22;15138;51.012;4.692;2023-03-31T08:16:02;12.40;1.00
27747;DHT22;15138;51.012;4.692;2023-03-31T08:18:34;12.20;1.00
27747;DHT22;15138;51.012;4.692;2023-03-31T08:21:02;12.30;52.70
27747;DHT22;15138;51.012;4.692;2023-03-31T08:23:30;12.40;54.70
27747;DHT22;15138;51.012;4.692;2023-03-31T08:26:07;12.40;26.30
27747;DHT22;15138;51.012;4.692;2023-03-31T08:28:36;12.40;14.70
27747;DHT22;15138;51.012;4.692;2023-03-31T08:31:07;12.40;22.00
27747;DHT22;15138;51.012;4.692;2023-03-31T08:33:36;12.50;1.00
27747;DHT22;15138;51.012;4.692;2023-03-31T08:36:06;12.50;1.00
27747;DHT22;15138;51.012;4.692;2023-03-31T08:38:37;12.60;1.00
27747;DHT22;15138;51.012;4.692;2023-03-31T08:41:20;12.80;1.00
27747;DHT22;15138;51.012;4.692;2023-03-31T08:43:50;12.80;1.00
27747;DHT22;15138;51.012;4.692;2023-03-31T08:46:21;12.70;99.90
27747;DHT22;15138;51.012;4.692;2023-03-31T08:48:53;12.80;99.90
27747;DHT22;15138;51.012;4.692;2023-03-31T08:51:25;12.90;99.90
27747;DHT22;15138;51.012;4.692;2023-03-31T08:53:58;12.90;99.90
27747;DHT22;15138;51.012;4.692;2023-03-31T08:56:32;12.90;99.90
27747;DHT22;15138;51.012;4.692;2023-03-31T08:59:04;12.90;99.90
27747;DHT22;15138;51.012;4.692;2023-03-31T09:01:39;13.00;99.90
27747;DHT22;15138;51.012;4.692;2023-03-31T09:04:34;12.80;87.70
27747;DHT22;15138;51.012;4.692;2023-03-31T09:07:11;12.90;79.60
27747;DHT22;15138;51.012;4.692;2023-03-31T09:09:46;13.00;99.90
27747;DHT22;15138;51.012;4.692;2023-03-31T09:12:19;12.90;29.00
27747;DHT22;15138;51.012;4.692;2023-03-31T09:14:51;13.10;23.40
27747;DHT22;15138;51.012;4.692;2023-03-31T09:17:25;13.30;41.60
27747;DHT22;15138;51.012;4.692;2023-03-31T09:19:56;13.10;16.20
27747;DHT22;15138;51.012;4.692;2023-03-31T09:22:29;13.30;39.80
27747;DHT22;15138;51.012;4.692;2023-03-31T09:25:02;13.20;28.80
27747;DHT22;15138;51.012;4.692;2023-03-31T09:27:33;13.30;42.50
27747;DHT22;15138;51.012;4.692;2023-03-31T09:30:08;13.30;54.00
27747;DHT22;15138;51.012;4.692;2023-03-31T09:32:38;13.20;25.80
27747;DHT22;15138;51.012;4.692;2023-03-31T09:35:15;13.20;39.20
27747;DHT22;15138;51.012;4.692;2023-03-31T09:37:43;13.20;53.70
27747;DHT22;15138;51.012;4.692;2023-03-31T09:40:16;13.30;52.70
27747;DHT22;15138;51.012;4.692;2023-03-31T09:42:45;13.30;42.00
27747;DHT22;15138;51.012;4.692;2023-03-31T09:45:15;13.40;50.40
27747;DHT22;15138;51.012;4.692;2023-03-31T09:47:49;13.50;36.40
27747;DHT22;15138;51.012;4.692;2023-03-31T09:50:19;13.60;50.10
27747;DHT22;15138;51.012;4.692;2023-03-31T09:52:52;13.70;39.20
27747;DHT22;15138;51.012;4.692;2023-03-31T09:55:25;13.60;27.00
27747;DHT22;15138;51.012;4.692;2023-03-31T09:58:06;13.70;31.30
27747;DHT22;15138;51.012;4.692;2023-03-31T10:00:35;13.70;3.60
27747;DHT22;15138;51.012;4.692;2023-03-31T10:03:05;13.80;11.00
27747;DHT22;15138;51.012;4.692;2023-03-31T10:05:36;13.70;1.00
27747;DHT22;15138;51.012;4.692;2023-03-31T10:08:27;13.60;1.00
27747;DHT22;15138;51.012;4.692;2023-03-31T10:11:05;13.70;1.00
27747;DHT22;15138;51.012;4.692;2023-03-31T10:13:42;13.80;1.00
27747;DHT22;15138;51.012;4.692;2023-03-31T10:16:13;13.80;1.00
27747;DHT22;15138;51.012;4.692;2023-03-31T10:18:43;13.70;1.00
27747;DHT22;15138;51.012;4.692;2023-03-31T10:21:23;13.60;1.00
27747;DHT22;15138;51.012;4.692;2023-03-31T10:23:52;13.60;1.00
27747;DHT22;15138;51.012;4.692;2023-03-31T10:26:24;13.50;1.00
27747;DHT22;15138;51.012;4.692;2023-03-31T10:28:53;13.40;1.00
27747;DHT22;15138;51.012;4.692;2023-03-31T10:31:25;13.50;1.00
27747;DHT22;15138;51.012;4.692;2023-03-31T10:33:56;13.60;1.00
27747;DHT22;15138;51.012;4.692;2023-03-31T10:36:27;13.40;1.00
27747;DHT22;15138;51.012;4.692;2023-03-31T10:38:57;13.60;1.00
27747;DHT22;15138;51.012;4.692;2023-03-31T10:41:28;13.60;1.00
27747;DHT22;15138;51.012;4.692;2023-03-31T10:43:57;13.70;1.00
27747;DHT22;15138;51.012;4.692;2023-03-31T10:46:39;13.70;1.00
27747;DHT22;15138;51.012;4.692;2023-03-31T10:49:23;13.70;1.00
27747;DHT22;15138;51.012;4.692;2023-03-31T10:51:53;13.70;1.00
27747;DHT22;15138;51.012;4.692;2023-03-31T10:54:22;13.80;1.00
27747;DHT22;15138;51.012;4.692;2023-03-31T10:56:51;13.70;1.00
27747;DHT22;15138;51.012;4.692;2023-03-31T10:59:31;13.70;1.00
27747;DHT22;15138;51.012;4.692;2023-03-31T11:02:40;13.70;1.00
27747;DHT22;15138;51.012;4.692;2023-03-31T11:05:17;13.60;1.00
27747;DHT22;15138;51.012;4.692;2023-03-31T11:08:01;13.80;1.00
27747;DHT22;15138;51.012;4.692;2023-03-31T11:10:40;13.80;1.00
27747;DHT22;15138;51.012;4.692;2023-03-31T11:13:17;13.90;1.00
27747;DHT22;15138;51.012;4.692;2023-03-31T11:15:50;14.10;1.00
27747;DHT22;15138;51.012;4.692;2023-03-31T11:18:43;13.90;1.00
27747;DHT22;15138;51.012;4.692;2023-03-31T11:21:20;14.00;1.00
27747;DHT22;15138;51.012;4.692;2023-03-31T11:24:00;13.80;1.00
27747;DHT22;15138;51.012;4.692;2023-03-31T11:26:39;13.80;1.00
27747;DHT22;15138;51.012;4.692;2023-03-31T11:29:24;13.90;1.00
27747;DHT22;15138;51.012;4.692;2023-03-31T11:32:13;14.00;1.00
27747;DHT22;15138;51.012;4.692;2023-03-31T11:35:03;14.10;1.00
27747;DHT22;15138;51.012;4.692;2023-03-31T11:37:46;14.10;1.00
27747;DHT22;15138;51.012;4.692;2023-03-31T11:40:37;14.00;1.00
27747;DHT22;15138;51.012;4.692;2023-03-31T11:43:10;14.00;1.00
27747;DHT22;15138;51.012;4.692;2023-03-31T11:45:43;14.30;1.00
27747;DHT22;15138;51.012;4.692;2023-03-31T11:48:17;14.30;1.00
27747;DHT22;15138;51.012;4.692;2023-03-31T11:50:48;14.10;1.00
27747;DHT22;15138;51.012;4.692;2023-03-31T11:53:22;14.20;1.00
27747;DHT22;15138;51.012;4.692;2023-03-31T11:55:54;14.40;1.00
27747;DHT22;15138;51.012;4.692;2023-03-31T11:58:26;14.70;1.00
27747;DHT22;15138;51.012;4.692;2023-03-31T12:01:00;14.50;1.00
27747;DHT22;15138;51.012;4.692;2023-03-31T12:03:37;14.70;1.00
27747;DHT22;15138;51.012;4.692;2023-03-31T12:06:12;14.60;1.00
27747;DHT22;15138;51.012;4.692;2023-03-31T12:08:52;14.50;1.00
27747;DHT22;15138;51.012;4.692;2023-03-31T12:11:30;14.40;1.00
27747;DHT22;15138;51.012;4.692;2023-03-31T12:14:05;14.30;1.00
27747;DHT22;15138;51.012;4.692;2023-03-31T12:16:39;14.50;1.00
27747;DHT22;15138;51.012;4.692;2023-03-31T12:19:14;14.40;1.00
27747;DHT22;15138;51.012;4.692;2023-03-31T12:21:48;14.10;1.00
27747;DHT22;15138;51.012;4.692;2023-03-31T12:24:18;13.80;1.00
27747;DHT22;15138;51.012;4.692;2023-03-31T12:26:55;13.60;1.00
27747;DHT22;15138;51.012;4.692;2023-03-31T12:29:31;13.40;1.00
27747;DHT22;15138;51.012;4.692;2023-03-31T12:32:04;13.20;1.00
27747;DHT22;15138;51.012;4.692;2023-03-31T12:34:37;13.30;1.00
27747;DHT22;15138;51.012;4.692;2023-03-31T12:37:50;13.10;4.30
27747;DHT22;15138;51.012;4.692;2023-03-31T12:40:33;12.80;31.20
27747;DHT22;15138;51.012;4.692;2023-03-31T12:43:18;12.80;99.90
27747;DHT22;15138;51.012;4.692;2023-03-31T12:45:55;12.70;99.90
27747;DHT22;15138;51.012;4.692;2023-03-31T12:48:44;12.80;99.90
27747;DHT22;15138;51.012;4.692;2023-03-31T12:51:36;12.80;99.90
27747;DHT22;15138;51.012;4.692;2023-03-31T12:54:18;12.70;99.90
27747;DHT22;15138;51.012;4.692;2023-03-31T12:57:11;12.80;99.90
27747;DHT22;15138;51.012;4.692;2023-03-31T12:59:41;12.90;99.90
27747;DHT22;15138;51.012;4.692;2023-03-31T13:02:24;12.80;99.90
27747;DHT22;15138;51.012;4.692;2023-03-31T13:04:53;12.90;99.90
27747;DHT22;15138;51.012;4.692;2023-03-31T13:07:40;12.80;99.90
27747;DHT22;15138;51.012;4.692;2023-03-31T13:10:27;12.90;97.90
27747;DHT22;15138;51.012;4.692;2023-03-31T13:13:01;12.80;30.00
27747;DHT22;15138;51.012;4.692;2023-03-31T13:15:31;13.00;32.60
27747;DHT22;15138;51.012;4.692;2023-03-31T13:18:01;13.00;12.40
27747;DHT22;15138;51.012;4.692;2023-03-31T13:20:32;13.00;1.00
27747;DHT22;15138;51.012;4.692;2023-03-31T13:23:04;13.00;1.00
27747;DHT22;15138;51.012;4.692;2023-03-31T13:25:40;13.10;1.00
27747;DHT22;15138;51.012;4.692;2023-03-31T13:28:41;13.10;1.00
27747;DHT22;15138;51.012;4.692;2023-03-31T13:31:10;13.00;1.00
27747;DHT22;15138;51.012;4.692;2023-03-31T13:33:48;12.90;1.00
27747;DHT22;15138;51.012;4.692;2023-03-31T13:36:48;13.10;1.00
27747;DHT22;15138;51.012;4.692;2023-03-31T13:39:49;13.00;1.00
27747;DHT22;15138;51.012;4.692;2023-03-31T13:45:42;13.20;1.00
27747;DHT22;15138;51.012;4.692;2023-03-31T13:48:23;13.20;1.00
27747;DHT22;15138;51.012;4.692;2023-03-31T13:51:28;13.10;1.00
27747;DHT22;15138;51.012;4.692;2023-03-31T13:57:43;12.90;1.00
27747;DHT22;15138;51.012;4.692;2023-03-31T14:00:23;13.00;1.00
27747;DHT22;15138;51.012;4.692;2023-03-31T14:03:16;12.90;1.00
27747;DHT22;15138;51.012;4.692;2023-03-31T14:05:47;12.70;1.00
27747;DHT22;15138;51.012;4.692;2023-03-31T14:08:23;12.60;1.00
27747;DHT22;15138;51.012;4.692;2023-03-31T14:10:54;12.50;1.00
27747;DHT22;15138;51.012;4.692;2023-03-31T14:13:42;12.50;1.00
27747;DHT22;15138;51.012;4.692;2023-03-31T14:16:11;12.50;1.00
27747;DHT22;15138;51.012;4.692;2023-03-31T14:18:48;12.50;1.00
27747;DHT22;15138;51.012;4.692;2023-03-31T14:21:24;12.40;1.00
27747;DHT22;15138;51.012;4.692;2023-03-31T14:24:03;12.30;1.00
27747;DHT22;15138;51.012;4.692;2023-03-31T14:26:45;12.30;1.00
27747;DHT22;15138;51.012;4.692;2023-03-31T14:29:17;12.30;1.00
27747;DHT22;15138;51.012;4.692;2023-03-31T14:31:54;12.40;1.00
27747;DHT22;15138;51.012;4.692;2023-03-31T14:34:38;12.50;1.00
27747;DHT22;15138;51.012;4.692;2023-03-31T14:37:11;12.50;1.00
27747;DHT22;15138;51.012;4.692;2023-03-31T14:39:44;12.50;1.00
27747;DHT22;15138;51.012;4.692;2023-03-31T14:42:14;12.60;1.00
27747;DHT22;15138;51.012;4.692;2023-03-31T14:44:44;12.60;1.00
27747;DHT22;15138;51.012;4.692;2023-03-31T14:47:15;12.60;1.00
27747;DHT22;15138;51.012;4.692;2023-03-31T14:49:58;12.70;1.00
27747;DHT22;15138;51.012;4.692;2023-03-31T14:52:29;12.70;1.00
27747;DHT22;15138;51.012;4.692;2023-03-31T14:54:58;12.80;1.00
27747;DHT22;15138;51.012;4.692;2023-03-31T14:57:29;12.70;1.00
27747;DHT22;15138;51.012;4.692;2023-03-31T14:59:58;12.50;1.00
27747;DHT22;15138;51.012;4.692;2023-03-31T15:02:32;12.50;1.00
27747;DHT22;15138;51.012;4.692;2023-03-31T15:05:05;12.50;1.00
27747;DHT22;15138;51.012;4.692;2023-03-31T15:07:36;12.50;1.00
27747;DHT22;15138;51.012;4.692;2023-03-31T15:10:05;12.60;1.00
27747;DHT22;15138;51.012;4.692;2023-03-31T15:12:34;12.50;1.00
27747;DHT22;15138;51.012;4.692;2023-03-31T15:15:05;12.70;1.00
27747;DHT22;15138;51.012;4.692;2023-03-31T15:17:38;12.60;1.00
27747;DHT22;15138;51.012;4.692;2023-03-31T15:20:25;12.60;1.00
27747;DHT22;15138;51.012;4.692;2023-03-31T15:22:55;12.50;1.00
27747;DHT22;15138;51.012;4.692;2023-03-31T15:25:27;12.40;1.00
27747;DHT22;15138;51.012;4.692;2023-03-31T15:27:59;12.40;1.00
27747;DHT22;15138;51.012;4.692;2023-03-31T15:30:29;12.40;1.00
27747;DHT22;15138;51.012;4.692;2023-03-31T15:32:58;12.30;1.00
27747;DHT22;15138;51.012;4.692;2023-03-31T15:35:48;12.40;1.00
27747;DHT22;15138;51.012;4.692;2023-03-31T15:38:17;12.30;1.00
27747;DHT22;15138;51.012;4.692;2023-03-31T15:40:48;12.40;1.00
27747;DHT22;15138;51.012;4.692;2023-03-31T15:43:27;12.40;1.00
27747;DHT22;15138;51.012;4.692;2023-03-31T15:45:56;12.40;1.00
27747;DHT22;15138;51.012;4.692;2023-03-31T15:48:28;12.50;1.00
27747;DHT22;15138;51.012;4.692;2023-03-31T15:51:03;12.50;1.00
27747;DHT22;15138;51.012;4.692;2023-03-31T15:53:36;12.50;1.00
27747;DHT22;15138;51.012;4.692;2023-03-31T15:56:05;12.50;1.00
27747;DHT22;15138;51.012;4.692;2023-03-31T15:58:52;12.40;1.00
27747;DHT22;15138;51.012;4.692;2023-03-31T16:01:21;12.40;1.00
27747;DHT22;15138;51.012;4.692;2023-03-31T16:03:53;12.40;1.00
27747;DHT22;15138;51.012;4.692;2023-03-31T16:06:31;12.40;1.00
27747;DHT22;15138;51.012;4.692;2023-03-31T16:09:01;12.40;1.00
27747;DHT22;15138;51.012;4.692;2023-03-31T16:11:35;12.20;1.00
27747;DHT22;15138;51.012;4.692;2023-03-31T16:14:09;12.20;1.00
27747;DHT22;15138;51.012;4.692;2023-03-31T16:16:39;12.10;1.00
27747;DHT22;15138;51.012;4.692;2023-03-31T16:19:12;12.10;1.00
27747;DHT22;15138;51.012;4.692;2023-03-31T16:21:44;12.00;5.30
27747;DHT22;15138;51.012;4.692;2023-03-31T16:24:16;12.10;23.70
27747;DHT22;15138;51.012;4.692;2023-03-31T16:26:44;12.20;48.10
27747;DHT22;15138;51.012;4.692;2023-03-31T16:29:19;12.00;89.10
27747;DHT22;15138;51.012;4.692;2023-03-31T16:31:48;11.80;99.90
27747;DHT22;15138;51.012;4.692;2023-03-31T16:34:16;11.80;99.90
27747;DHT22;15138;51.012;4.692;2023-03-31T16:36:46;11.80;99.90
27747;DHT22;15138;51.012;4.692;2023-03-31T16:39:15;11.60;99.90
27747;DHT22;15138;51.012;4.692;2023-03-31T16:41:43;11.60;99.90
27747;DHT22;15138;51.012;4.692;2023-03-31T16:44:13;11.50;99.90
27747;DHT22;15138;51.012;4.692;2023-03-31T16:46:41;11.40;1.00
27747;DHT22;15138;51.012;4.692;2023-03-31T16:49:09;11.40;1.00
27747;DHT22;15138;51.012;4.692;2023-03-31T16:51:38;11.40;1.00
27747;DHT22;15138;51.012;4.692;2023-03-31T16:54:07;11.40;1.00
27747;DHT22;15138;51.012;4.692;2023-03-31T16:56:36;11.40;1.00
27747;DHT22;15138;51.012;4.692;2023-03-31T16:59:04;11.50;1.00
27747;DHT22;15138;51.012;4.692;2023-03-31T17:01:34;11.40;1.00
27747;DHT22;15138;51.012;4.692;2023-03-31T17:04:02;11.40;96.10
27747;DHT22;15138;51.012;4.692;2023-03-31T17:06:30;11.30;99.90
27747;DHT22;15138;51.012;4.692;2023-03-31T17:08:59;11.30;99.90
27747;DHT22;15138;51.012;4.692;2023-03-31T17:11:28;11.30;99.90
27747;DHT22;15138;51.012;4.692;2023-03-31T17:14:17;11.10;99.90
27747;DHT22;15138;51.012;4.692;2023-03-31T17:16:45;11.20;99.90
27747;DHT22;15138;51.012;4.692;2023-03-31T17:19:14;11.20;99.90
27747;DHT22;15138;51.012;4.692;2023-03-31T17:21:43;11.20;99.90
27747;DHT22;15138;51.012;4.692;2023-03-31T17:24:11;11.20;99.90
27747;DHT22;15138;51.012;4.692;2023-03-31T17:26:41;11.20;95.60
27747;DHT22;15138;51.012;4.692;2023-03-31T17:29:09;11.20;99.90
27747;DHT22;15138;51.012;4.692;2023-03-31T17:31:41;11.20;99.90
27747;DHT22;15138;51.012;4.692;2023-03-31T17:34:09;11.10;99.90
27747;DHT22;15138;51.012;4.692;2023-03-31T17:36:37;11.10;1.00